createdAt,value
2018-09-28T00:02:22.357Z,88.16
2018-09-28T00:04:51.198Z,88.12
2018-09-28T00:07:19.870Z,89.21
2018-09-28T00:09:48.553Z,88.96
2018-09-28T00:12:17.139Z,89.28
2018-09-28T00:14:45.797Z,90.21
2018-09-28T00:17:14.398Z,89.88
2018-09-28T00:19:42.925Z,89.67
2018-09-28T00:22:11.674Z,90.22
2018-09-28T00:24:40.441Z,90.29
2018-09-28T00:27:09.271Z,90.22
2018-09-28T00:29:37.838Z,90.76
2018-09-28T00:32:06.628Z,90.24
2018-09-28T00:34:35.262Z,90.19
2018-09-28T00:37:03.946Z,90.95
2018-09-28T00:39:32.493Z,90.16
2018-09-28T00:42:01.152Z,90.03
2018-09-28T00:44:29.731Z,90.40
2018-09-28T00:46:58.419Z,90.43
2018-09-28T00:49:27.073Z,91.13
2018-09-28T00:51:55.617Z,90.67
2018-09-28T00:54:24.163Z,91.47
2018-09-28T00:56:52.751Z,91.18
2018-09-28T00:59:21.453Z,90.93
2018-09-28T01:01:50.198Z,91.01
2018-09-28T01:04:18.849Z,91.00
2018-09-28T01:06:47.412Z,90.98
2018-09-28T01:09:16.510Z,90.49
2018-09-28T01:11:45.417Z,90.39
2018-09-28T01:14:13.989Z,90.50
2018-09-28T01:16:42.893Z,90.44
2018-09-28T01:19:11.486Z,90.70
2018-09-28T01:21:40.289Z,91.33
2018-09-28T01:24:08.847Z,91.67
2018-09-28T01:26:37.441Z,91.65
2018-09-28T01:29:05.990Z,91.26
2018-09-28T01:31:34.553Z,91.21
2018-09-28T01:34:03.263Z,91.07
2018-09-28T01:36:31.849Z,90.75
2018-09-28T01:39:00.876Z,90.77
2018-09-28T01:41:29.418Z,90.61
2018-09-28T01:43:57.964Z,90.26
2018-09-28T01:46:26.523Z,90.11
2018-09-28T01:48:55.066Z,89.89
2018-09-28T01:51:23.839Z,90.87
2018-09-28T01:53:52.438Z,90.23
2018-09-28T01:56:20.984Z,90.18
2018-09-28T01:58:49.557Z,89.45
2018-09-28T02:01:18.102Z,90.05
2018-09-28T02:03:46.783Z,89.72
2018-09-28T02:06:15.337Z,90.10
2018-09-28T02:08:43.962Z,90.03
2018-09-28T02:11:12.679Z,90.54
2018-09-28T02:13:41.226Z,90.98
2018-09-28T02:16:09.914Z,90.08
2018-09-28T02:18:38.454Z,90.33
2018-09-28T02:21:07.266Z,91.36
2018-09-28T02:23:35.862Z,90.65
2018-09-28T02:26:04.557Z,90.80
2018-09-28T02:28:33.322Z,90.99
2018-09-28T02:31:01.891Z,91.24
2018-09-28T02:33:30.446Z,91.81
2018-09-28T02:35:58.978Z,91.88
2018-09-28T02:38:27.502Z,92.48
2018-09-28T02:40:56.083Z,91.83
2018-09-28T02:43:24.747Z,93.07
2018-09-28T02:45:53.390Z,92.59
2018-09-28T02:48:22.102Z,93.22
2018-09-28T02:50:50.644Z,93.70
2018-09-28T02:53:19.749Z,93.76
2018-09-28T02:55:49.625Z,94.64
2018-09-28T02:58:18.207Z,93.91
2018-09-28T03:00:47.638Z,93.87
2018-09-28T03:03:16.513Z,94.74
2018-09-28T03:05:45.366Z,94.52
2018-09-28T03:08:14.029Z,94.76
2018-09-28T03:10:42.589Z,94.44
2018-09-28T03:13:11.135Z,94.31
2018-09-28T03:15:39.698Z,94.92
2018-09-28T03:18:08.414Z,95.21
2018-09-28T03:20:36.993Z,94.73
2018-09-28T03:23:05.637Z,95.50
2018-09-28T03:25:34.222Z,95.55
2018-09-28T03:28:02.769Z,94.95
2018-09-28T03:30:31.437Z,95.00
2018-09-28T03:33:00.009Z,95.67
2018-09-28T03:35:28.576Z,95.05
2018-09-28T03:37:57.357Z,95.89
2018-09-28T03:40:26.212Z,95.23
2018-09-28T03:42:54.965Z,95.65
2018-09-28T03:45:23.570Z,95.15
2018-09-28T03:47:52.172Z,95.41
2018-09-28T03:50:20.765Z,95.78
2018-09-28T03:52:49.309Z,95.55
2018-09-28T03:55:17.972Z,95.64
2018-09-28T03:57:46.682Z,96.16
2018-09-28T04:00:15.588Z,95.58
2018-09-28T04:02:44.232Z,95.60
2018-09-28T04:05:12.912Z,96.22
2018-09-28T04:07:41.561Z,96.42
2018-09-28T04:10:10.171Z,95.85
2018-09-28T04:12:38.821Z,95.58
2018-09-28T04:15:07.779Z,95.76
2018-09-28T04:17:36.574Z,95.55
2018-09-28T04:20:05.214Z,95.65
2018-09-28T04:22:33.768Z,95.69
2018-09-28T04:25:02.354Z,95.09
2018-09-28T04:27:31.599Z,95.15
2018-09-28T04:30:00.673Z,95.10
2018-09-28T04:32:29.805Z,95.60
2018-09-28T04:34:58.867Z,95.64
2018-09-28T04:37:28.017Z,95.16
2018-09-28T04:39:57.361Z,95.60
2018-09-28T04:42:26.256Z,95.61
2018-09-28T04:44:55.502Z,95.53
2018-09-28T04:47:24.160Z,95.73
2018-09-28T04:49:52.890Z,95.26
2018-09-28T04:52:21.641Z,95.28
2018-09-28T04:54:50.244Z,95.08
2018-09-28T04:57:19.157Z,95.38
2018-09-28T04:59:47.969Z,95.79
2018-09-28T05:02:16.630Z,94.97
2018-09-28T05:04:45.852Z,94.88
2018-09-28T05:07:14.432Z,95.03
2018-09-28T05:09:43.126Z,94.67
2018-09-28T05:12:11.691Z,94.99
2018-09-28T05:14:40.401Z,94.82
2018-09-28T05:17:09.146Z,94.01
2018-09-28T05:19:37.761Z,93.29
2018-09-28T05:22:06.494Z,94.11
2018-09-28T05:24:35.104Z,93.42
2018-09-28T05:27:03.706Z,93.68
2018-09-28T05:29:32.259Z,93.17
2018-09-28T05:32:01.071Z,93.88
2018-09-28T05:34:30.021Z,94.09
2018-09-28T05:36:58.678Z,94.44
2018-09-28T05:39:27.256Z,94.41
2018-09-28T05:41:56.000Z,94.21
2018-09-28T05:44:24.583Z,93.97
2018-09-28T05:46:53.189Z,93.23
2018-09-28T05:49:21.770Z,92.90
2018-09-28T05:51:50.454Z,91.66
2018-09-28T05:54:19.208Z,90.35
2018-09-28T05:56:47.736Z,90.70
2018-09-28T05:59:21.459Z,86.75
2018-09-28T06:01:55.241Z,82.06
2018-09-28T06:04:29.336Z,75.26
2018-09-28T06:06:58.265Z,67.26
2018-09-28T06:09:26.813Z,60.74
2018-09-28T06:11:55.349Z,55.35
2018-09-28T06:14:23.921Z,51.45
2018-09-28T06:16:53.074Z,49.19
2018-09-28T06:19:22.233Z,49.12
2018-09-28T06:21:51.830Z,50.55
2018-09-28T06:24:20.593Z,48.69
2018-09-28T06:26:49.206Z,45.41
2018-09-28T06:29:17.856Z,43.19
2018-09-28T06:31:47.209Z,39.25
2018-09-28T06:34:16.654Z,38.00
2018-09-28T06:36:46.644Z,36.93
2018-09-28T06:39:17.358Z,35.41
2018-09-28T06:41:46.555Z,33.19
2018-09-28T06:44:15.794Z,32.00
2018-09-28T06:46:44.963Z,31.04
2018-09-28T06:49:14.165Z,29.45
2018-09-28T06:51:43.799Z,28.32
2018-09-28T06:56:42.581Z,27.28
2018-09-28T06:59:11.846Z,26.84
2018-09-28T07:01:41.634Z,25.36
2018-09-28T07:04:11.437Z,25.24
2018-09-28T07:06:40.591Z,25.64
2018-09-28T07:09:12.538Z,25.78
2018-09-28T07:11:42.149Z,25.63
2018-09-28T07:14:11.738Z,24.79
2018-09-28T07:16:41.444Z,24.60
2018-09-28T07:19:10.884Z,24.34
2018-09-28T07:21:40.046Z,23.72
2018-09-28T07:24:09.203Z,23.69
2018-09-28T07:26:38.918Z,23.62
2018-09-28T07:29:08.090Z,23.83
2018-09-28T07:31:38.088Z,23.23
2018-09-28T07:34:07.827Z,22.95
2018-09-28T07:36:37.129Z,22.57
2018-09-28T07:39:09.548Z,22.25
2018-09-28T07:41:38.733Z,22.51
2018-09-28T07:44:08.729Z,22.77
2018-09-28T07:46:37.839Z,22.33
2018-09-28T07:49:07.246Z,22.24
2018-09-28T07:51:36.473Z,22.59
2018-09-28T07:54:05.735Z,22.52
2018-09-28T07:56:35.160Z,23.30
2018-09-28T07:59:04.582Z,24.48
2018-09-28T08:01:33.743Z,24.86
2018-09-28T08:04:02.977Z,23.04
2018-09-28T08:06:32.290Z,23.73
2018-09-28T08:09:01.406Z,23.57
2018-09-28T08:11:30.531Z,23.34
2018-09-28T08:13:59.666Z,22.99
2018-09-28T08:16:28.832Z,22.72
2018-09-28T08:18:58.137Z,21.52
2018-09-28T08:21:27.286Z,21.61
2018-09-28T08:23:56.688Z,21.92
2018-09-28T08:26:26.017Z,23.35
2018-09-28T08:28:55.327Z,25.12
2018-09-28T08:31:24.558Z,27.45
2018-09-28T08:33:53.683Z,29.71
2018-09-28T08:36:22.837Z,30.33
2018-09-28T08:38:52.145Z,32.36
2018-09-28T08:41:21.298Z,34.37
2018-09-28T08:43:50.429Z,35.15
2018-09-28T08:46:19.746Z,36.63
2018-09-28T08:48:48.977Z,37.13
2018-09-28T08:51:18.336Z,36.41
2018-09-28T08:53:47.677Z,39.03
2018-09-28T08:56:16.338Z,39.27
2018-09-28T08:58:44.932Z,41.26
2018-09-28T09:01:14.215Z,41.20
2018-09-28T09:03:42.753Z,41.74
2018-09-28T09:06:11.438Z,42.90
2018-09-28T09:08:40.099Z,44.41
2018-09-28T09:11:09.282Z,44.75
2018-09-28T09:13:38.403Z,43.61
2018-09-28T09:16:08.693Z,44.44
2018-09-28T09:18:37.890Z,44.72
2018-09-28T09:21:07.900Z,44.62
2018-09-28T09:23:37.540Z,45.56
2018-09-28T09:26:06.341Z,46.84
2018-09-28T09:28:34.954Z,46.54
2018-09-28T09:31:03.552Z,46.63
2018-09-28T09:33:33.626Z,46.65
2018-09-28T09:36:02.200Z,46.95
2018-09-28T09:38:30.745Z,47.79
2018-09-28T09:40:59.921Z,48.56
2018-09-28T09:43:28.735Z,48.15
2018-09-28T09:45:57.422Z,47.75
2018-09-28T09:48:26.292Z,49.08
2018-09-28T09:50:54.970Z,48.63
2018-09-28T09:53:23.526Z,49.81
2018-09-28T09:55:52.382Z,49.23
2018-09-28T09:58:20.986Z,49.26
2018-09-28T10:00:54.871Z,49.64
2018-09-28T10:03:28.907Z,50.06
2018-09-28T10:05:57.717Z,49.78
2018-09-28T10:08:26.370Z,49.34
2018-09-28T10:10:54.961Z,48.75
2018-09-28T10:13:23.682Z,48.48
2018-09-28T10:15:52.333Z,50.42
2018-09-28T10:18:20.954Z,50.21
2018-09-28T10:20:49.727Z,49.95
2018-09-28T10:23:18.343Z,50.95
2018-09-28T10:25:46.911Z,50.10
2018-09-28T10:28:15.546Z,51.27
2018-09-28T10:30:44.423Z,52.10
2018-09-28T10:33:13.182Z,51.91
2018-09-28T10:35:42.351Z,52.82
2018-09-28T10:38:10.980Z,52.98
2018-09-28T10:40:39.870Z,54.53
2018-09-28T10:43:08.833Z,53.32
2018-09-28T10:45:37.510Z,53.88
2018-09-28T10:48:06.160Z,54.80
2018-09-28T10:50:34.804Z,55.73
2018-09-28T10:53:03.401Z,55.05
2018-09-28T10:55:32.297Z,55.36
2018-09-28T10:58:01.037Z,54.52
2018-09-28T11:00:29.884Z,54.34
2018-09-28T11:02:58.673Z,55.58
2018-09-28T11:05:27.389Z,54.76
2018-09-28T11:07:55.974Z,55.52
2018-09-28T11:10:25.183Z,54.62
2018-09-28T11:12:53.862Z,55.04
2018-09-28T11:15:22.480Z,56.02
2018-09-28T11:17:52.490Z,56.46
2018-09-28T11:20:21.238Z,55.32
2018-09-28T11:22:50.490Z,55.94
2018-09-28T11:25:19.607Z,54.89
2018-09-28T11:27:48.399Z,54.84
2018-09-28T11:30:17.154Z,54.00
2018-09-28T11:32:45.730Z,53.01
2018-09-28T11:35:14.276Z,54.58
2018-09-28T11:37:42.864Z,54.65
2018-09-28T11:40:11.969Z,55.77
2018-09-28T11:42:41.221Z,55.65
2018-09-28T11:45:09.873Z,55.17
2018-09-28T11:47:38.593Z,54.66
2018-09-28T11:50:07.142Z,55.13
2018-09-28T11:52:35.707Z,54.65
2018-09-28T11:55:04.406Z,54.16
2018-09-28T11:57:33.139Z,54.05
2018-09-28T12:00:01.882Z,53.52
2018-09-28T12:02:30.936Z,53.56
2018-09-28T12:04:59.558Z,54.35
2018-09-28T12:07:28.303Z,54.03
2018-09-28T12:09:56.889Z,54.33
2018-09-28T12:12:25.598Z,55.81
2018-09-28T12:14:54.296Z,53.96
2018-09-28T12:17:22.947Z,53.12
2018-09-28T12:19:51.529Z,53.11
2018-09-28T12:22:20.115Z,53.70
2018-09-28T12:24:48.678Z,54.41
2018-09-28T12:27:17.512Z,55.39
2018-09-28T12:29:46.231Z,55.39
2018-09-28T12:32:14.785Z,55.31
2018-09-28T12:34:43.489Z,55.63
2018-09-28T12:37:12.321Z,56.55
2018-09-28T12:39:41.070Z,56.09
2018-09-28T12:42:10.380Z,56.35
2018-09-28T12:44:39.190Z,57.76
2018-09-28T12:47:08.092Z,57.49
2018-09-28T12:49:37.199Z,59.86
2018-09-28T12:52:05.757Z,61.76
2018-09-28T12:54:34.453Z,65.22
2018-09-28T12:57:03.489Z,68.65
2018-09-28T12:59:32.122Z,71.18
2018-09-28T13:02:00.674Z,71.84
2018-09-28T13:04:29.217Z,72.31
2018-09-28T13:06:57.769Z,72.72
2018-09-28T13:09:26.333Z,73.10
2018-09-28T13:11:55.046Z,71.84
2018-09-28T13:14:23.720Z,71.12
2018-09-28T13:16:52.414Z,71.08
2018-09-28T13:19:20.989Z,71.01
2018-09-28T13:21:49.619Z,70.83
2018-09-28T13:24:18.384Z,70.48
2018-09-28T13:26:47.121Z,70.76
2018-09-28T13:29:16.008Z,70.69
2018-09-28T13:31:44.829Z,71.78
2018-09-28T13:34:13.380Z,71.91
2018-09-28T13:36:42.026Z,71.47
2018-09-28T13:39:11.252Z,71.23
2018-09-28T13:41:40.234Z,71.29
2018-09-28T13:44:09.412Z,71.20
2018-09-28T13:46:38.398Z,71.17
2018-09-28T13:49:07.275Z,71.70
2018-09-28T13:51:36.650Z,71.67
2018-09-28T13:54:05.326Z,71.52
2018-09-28T13:56:33.943Z,71.21
2018-09-28T13:59:02.806Z,70.99
2018-09-28T14:01:31.442Z,70.37
2018-09-28T14:04:00.221Z,70.77
2018-09-28T14:06:28.956Z,68.83
2018-09-28T14:08:57.786Z,68.05
2018-09-28T14:11:26.511Z,66.99
2018-09-28T14:13:58.273Z,67.42
2018-09-28T14:16:29.454Z,67.39
2018-09-28T14:18:58.056Z,66.58
2018-09-28T14:21:26.742Z,67.14
2018-09-28T14:23:55.421Z,65.85
2018-09-28T14:26:24.175Z,64.50
2018-09-28T14:28:53.117Z,63.66
2018-09-28T14:31:22.004Z,63.79
2018-09-28T14:33:50.802Z,64.80
2018-09-28T14:36:19.662Z,65.04
2018-09-28T14:38:48.798Z,65.20
2018-09-28T14:41:17.667Z,64.82
2018-09-28T14:43:46.940Z,64.99
2018-09-28T14:46:15.545Z,64.56
2018-09-28T14:48:44.233Z,64.94
2018-09-28T14:51:14.688Z,65.22
2018-09-28T14:53:44.131Z,65.52
2018-09-28T14:56:12.787Z,64.99
2018-09-28T14:58:46.883Z,64.99
2018-09-28T15:01:17.136Z,65.55
2018-09-28T15:03:45.831Z,65.22
2018-09-28T15:06:14.544Z,65.92
2018-09-28T15:08:43.287Z,65.33
2018-09-28T15:11:14.361Z,65.23
2018-09-28T15:13:44.425Z,65.32
2018-09-28T15:16:13.520Z,65.04
2018-09-28T15:18:42.317Z,65.01
2018-09-28T15:21:11.021Z,65.35
2018-09-28T15:23:39.716Z,65.74
2018-09-28T15:26:08.513Z,62.83
2018-09-28T15:28:37.968Z,57.69
2018-09-28T15:31:06.806Z,55.26
2018-09-28T15:33:36.425Z,55.75
2018-09-28T15:36:04.979Z,55.79
2018-09-28T15:38:33.624Z,56.72
2018-09-28T15:41:02.301Z,55.31
2018-09-28T15:43:30.900Z,55.10
2018-09-28T15:45:59.533Z,54.15
2018-09-28T15:48:28.221Z,54.59
2018-09-28T15:50:56.814Z,55.11
2018-09-28T15:53:25.437Z,53.55
2018-09-28T15:55:54.553Z,54.02
2018-09-28T15:58:23.093Z,53.62
2018-09-28T16:00:53.670Z,53.83
2018-09-28T16:03:22.210Z,53.66
2018-09-28T16:05:50.877Z,54.53
2018-09-28T16:08:20.054Z,54.78
2018-09-28T16:10:48.710Z,55.50
2018-09-28T16:13:17.255Z,54.92
2018-09-28T16:15:45.797Z,55.12
2018-09-28T16:18:14.333Z,54.63
2018-09-28T16:20:42.921Z,55.85
2018-09-28T16:23:11.684Z,55.75
2018-09-28T16:25:40.573Z,56.07
2018-09-28T16:28:09.215Z,55.43
2018-09-28T16:30:37.742Z,56.01
2018-09-28T16:33:06.569Z,55.96
2018-09-28T16:35:35.473Z,57.15
2018-09-28T16:38:04.375Z,57.13
2018-09-28T16:40:32.909Z,57.26
2018-09-28T16:43:01.552Z,57.05
2018-09-28T16:45:30.234Z,57.43
2018-09-28T16:47:58.777Z,57.89
2018-09-28T16:50:27.366Z,58.54
2018-09-28T16:52:55.947Z,58.32
2018-09-28T16:55:24.488Z,59.34
2018-09-28T16:57:53.156Z,59.30
2018-09-28T17:00:21.829Z,58.78
2018-09-28T17:02:50.482Z,58.79
2018-09-28T17:05:19.093Z,59.55
2018-09-28T17:07:47.725Z,59.44
2018-09-28T17:10:16.310Z,59.40
2018-09-28T17:12:44.963Z,59.40
2018-09-28T17:15:13.565Z,60.26
2018-09-28T17:17:42.179Z,60.28
2018-09-28T17:20:10.898Z,60.40
2018-09-28T17:22:39.462Z,60.72
2018-09-28T17:25:08.041Z,60.30
2018-09-28T17:27:36.618Z,61.07
2018-09-28T17:30:05.243Z,62.06
2018-09-28T17:32:33.902Z,62.07
2018-09-28T17:35:02.618Z,62.51
2018-09-28T17:37:32.285Z,62.24
2018-09-28T17:40:00.864Z,61.87
2018-09-28T17:42:29.448Z,62.16
2018-09-28T17:44:58.033Z,61.98
2018-09-28T17:47:29.043Z,61.92
2018-09-28T17:49:57.678Z,61.43
2018-09-28T17:52:26.288Z,61.67
2018-09-28T17:54:54.915Z,61.34
2018-09-28T17:57:23.533Z,61.30
2018-09-28T17:59:52.101Z,61.29
2018-09-28T18:02:20.676Z,60.65
2018-09-28T18:04:49.252Z,60.08
2018-09-28T18:07:17.835Z,59.94
2018-09-28T18:09:46.426Z,60.60
2018-09-28T18:12:15.176Z,60.71
2018-09-28T18:14:43.858Z,60.60
2018-09-28T18:17:12.557Z,59.84
2018-09-28T18:19:41.122Z,60.54
2018-09-28T18:22:10.446Z,60.58
2018-09-28T18:24:39.199Z,60.27
2018-09-28T18:27:07.976Z,60.83
2018-09-28T18:29:36.689Z,60.27
2018-09-28T18:32:05.369Z,60.51
2018-09-28T18:34:34.020Z,59.89
2018-09-28T18:37:02.714Z,60.76
2018-09-28T18:39:31.541Z,60.47
2018-09-28T18:42:00.123Z,61.34
2018-09-28T18:44:28.681Z,60.87
2018-09-28T18:46:57.271Z,60.94
2018-09-28T18:49:26.119Z,60.41
2018-09-28T18:51:54.842Z,60.59
2018-09-28T18:54:23.461Z,61.17
2018-09-28T18:56:52.017Z,60.56
2018-09-28T18:59:20.621Z,59.66
2018-09-28T19:01:49.402Z,60.64
2018-09-28T19:04:18.029Z,60.02
2018-09-28T19:06:46.708Z,60.18
2018-09-28T19:09:15.440Z,59.40
2018-09-28T19:11:44.147Z,59.64
2018-09-28T19:14:12.794Z,59.14
2018-09-28T19:16:41.354Z,58.04
2018-09-28T19:19:09.971Z,59.07
2018-09-28T19:21:38.506Z,59.28
2018-09-28T19:24:07.158Z,59.42
2018-09-28T19:26:36.001Z,58.28
2018-09-28T19:29:04.726Z,58.68
2018-09-28T19:31:33.318Z,58.31
2018-09-28T19:34:02.084Z,58.61
2018-09-28T19:36:30.665Z,58.34
2018-09-28T19:38:59.218Z,58.17
2018-09-28T19:41:27.863Z,57.60
2018-09-28T19:43:56.590Z,58.01
2018-09-28T19:46:25.223Z,58.23
2018-09-28T19:48:53.777Z,58.60
2018-09-28T19:51:22.770Z,58.12
2018-09-28T19:53:51.349Z,58.54
2018-09-28T19:56:19.965Z,58.53
2018-09-28T19:58:48.526Z,58.48
2018-09-28T20:01:17.162Z,59.53
2018-09-28T20:03:45.886Z,59.56
2018-09-28T20:06:14.448Z,59.80
2018-09-28T20:08:43.435Z,59.94
2018-09-28T20:11:11.982Z,61.71
2018-09-28T20:13:40.546Z,62.17
2018-09-28T20:16:09.212Z,62.16
2018-09-28T20:18:37.852Z,61.57
2018-09-28T20:21:06.671Z,62.57
2018-09-28T20:23:35.215Z,62.78
2018-09-28T20:26:03.770Z,63.73
2018-09-28T20:28:32.324Z,63.74
2018-09-28T20:31:00.879Z,64.05
2018-09-28T20:33:29.475Z,64.70
2018-09-28T20:35:58.180Z,64.98
2018-09-28T20:38:26.882Z,65.07
2018-09-28T20:40:56.146Z,65.68
2018-09-28T20:43:24.737Z,65.43
2018-09-28T20:45:53.295Z,65.81
2018-09-28T20:48:21.841Z,65.21
2018-09-28T20:50:50.635Z,65.76
2018-09-28T20:53:19.917Z,65.68
2018-09-28T20:55:48.556Z,65.32
2018-09-28T20:58:17.253Z,65.40
2018-09-28T21:00:45.807Z,66.79
2018-09-28T21:03:14.380Z,66.72
2018-09-28T21:05:42.982Z,67.15
2018-09-28T21:08:11.585Z,67.70
2018-09-28T21:10:40.301Z,68.88
2018-09-28T21:13:08.972Z,69.47
2018-09-28T21:15:37.666Z,69.37
2018-09-28T21:18:06.226Z,70.21
2018-09-28T21:20:34.779Z,70.76
2018-09-28T21:23:03.385Z,71.61
2018-09-28T21:25:31.926Z,72.57
2018-09-28T21:28:02.462Z,73.50
2018-09-28T21:30:31.463Z,73.68
2018-09-28T21:33:00.106Z,73.54
2018-09-28T21:35:28.850Z,74.09
2018-09-28T21:37:57.596Z,73.79
2018-09-28T21:40:26.158Z,73.85
2018-09-28T21:42:54.714Z,74.43
2018-09-28T21:45:23.265Z,73.69
2018-09-28T21:47:51.883Z,73.29
2018-09-28T21:50:20.577Z,73.22
2018-09-28T21:52:49.333Z,72.87
2018-09-28T21:55:17.895Z,73.04
2018-09-28T21:57:46.482Z,73.59
2018-09-28T22:00:15.100Z,72.65
2018-09-28T22:02:44.676Z,73.34
2018-09-28T22:05:13.261Z,72.48
2018-09-28T22:07:41.846Z,72.46
2018-09-28T22:10:10.578Z,72.39
2018-09-28T22:12:39.256Z,72.89
2018-09-28T22:15:08.170Z,73.56
2018-09-28T22:17:36.766Z,74.33
2018-09-28T22:20:06.333Z,74.45
2018-09-28T22:22:34.917Z,74.91
2018-09-28T22:25:03.486Z,75.03
2018-09-28T22:27:32.126Z,74.94
2018-09-28T22:30:00.752Z,74.60
2018-09-28T22:32:29.520Z,74.86
2018-09-28T22:34:58.101Z,75.50
2018-09-28T22:37:26.630Z,75.22
2018-09-28T22:39:55.174Z,75.15
2018-09-28T22:42:23.705Z,75.66
2018-09-28T22:44:52.294Z,76.73
2018-09-28T22:47:21.051Z,76.86
2018-09-28T22:49:49.782Z,77.11
2018-09-28T22:52:18.309Z,76.38
2018-09-28T22:54:46.923Z,76.83
2018-09-28T22:57:15.493Z,77.04
2018-09-28T22:59:44.029Z,78.12
2018-09-28T23:02:12.764Z,78.33
2018-09-28T23:04:41.545Z,79.06
2018-09-28T23:07:10.142Z,78.01
2018-09-28T23:09:38.764Z,77.76
2018-09-28T23:12:07.686Z,78.74
2018-09-28T23:14:36.234Z,78.40
2018-09-28T23:17:04.835Z,79.12
2018-09-28T23:19:33.518Z,79.82
2018-09-28T23:22:02.271Z,79.60
2018-09-28T23:24:30.812Z,79.77
2018-09-28T23:26:59.440Z,79.53
2018-09-28T23:29:27.990Z,80.46
2018-09-28T23:31:56.540Z,79.78
2018-09-28T23:34:25.113Z,79.73
2018-09-28T23:36:53.736Z,80.34
2018-09-28T23:39:22.333Z,79.59
2018-09-28T23:41:50.917Z,79.59
2018-09-28T23:44:19.698Z,80.32
2018-09-28T23:46:48.226Z,80.87
2018-09-28T23:49:16.831Z,80.60
2018-09-28T23:51:45.374Z,80.86
2018-09-28T23:54:14.130Z,81.29
2018-09-28T23:56:42.958Z,81.15
2018-09-28T23:59:11.490Z,81.17
